Time;durP1;ratioP1;P1;durP2;ratioP2;P2;SDS_P1;SDS_P2;PMS_P1;PMS_P2;Temp;Humidity;BMP_temperature;BMP_pressure;BME280_temperature;BME280_humidity;BME280_pressure;Samples;Min_cycle;Max_cycle;Signal;HPM_P1;HPM_P2
2022/06/12 00:00:12;;;;;;;;;2.33;2.33;;;;;19.58;52.11;102171.03;5061592;28;45462;-68
2022/06/12 00:02:38;;;;;;;;;3.33;3.33;;;;;19.50;51.79;102165.50;5062603;28;45480;-69
2022/06/12 00:05:05;;;;;;;;;5.33;5.33;;;;;19.53;52.63;102170.66;5058895;28;45429;-69
2022/06/12 00:07:30;;;;;;;;;5.00;4.00;;;;;19.58;52.24;102168.25;5062857;28;45644;-67
2022/06/12 00:09:55;;;;;;;;;2.33;2.00;;;;;19.51;52.61;102167.19;5057600;28;45436;-68
2022/06/12 00:12:21;;;;;;;;;2.00;2.00;;;;;19.54;52.19;102166.88;5061753;28;45323;-67
2022/06/12 00:14:46;;;;;;;;;1.67;1.67;;;;;19.55;51.94;102163.09;5053900;28;45474;-67
2022/06/12 00:17:12;;;;;;;;;7.00;2.00;;;;;19.51;52.19;102161.69;5062953;28;45610;-68
2022/06/12 00:19:40;;;;;;;;;2.00;2.00;;;;;19.45;52.10;102158.56;5056448;28;45297;-67
2022/06/12 00:22:06;;;;;;;;;1.67;1.33;;;;;19.44;51.58;102158.72;5062744;28;45484;-68
2022/06/12 00:24:31;;;;;;;;;3.67;3.33;;;;;19.38;52.47;102146.50;5056428;28;45626;-68
2022/06/12 00:26:57;;;;;;;;;2.67;2.67;;;;;19.37;52.02;102158.56;5062804;28;45389;-68
2022/06/12 00:29:35;;;;;;;;;2.67;2.67;;;;;19.37;52.69;102160.44;5060039;28;45326;-69
2022/06/12 00:32:07;;;;;;;;;3.67;3.33;;;;;19.33;52.91;102164.59;5065078;28;45434;-68
2022/06/12 00:34:36;;;;;;;;;4.00;2.00;;;;;19.35;52.39;102159.78;5063076;28;45718;-68
2022/06/12 00:37:03;;;;;;;;;3.00;1.33;;;;;19.31;53.08;102162.00;5065958;28;45750;-68
2022/06/12 00:39:31;;;;;;;;;2.67;1.33;;;;;19.30;53.58;102159.41;5063878;28;45576;-68
2022/06/12 00:41:57;;;;;;;;;1.00;1.00;;;;;19.23;53.34;102167.50;5081598;28;45417;-68
2022/06/12 00:44:37;;;;;;;;;2.00;2.00;;;;;19.22;52.95;102179.56;5059661;28;45615;-68
2022/06/12 00:47:14;;;;;;;;;3.33;1.67;;;;;19.18;53.53;102171.81;5062719;28;46291;-68
2022/06/12 00:49:52;;;;;;;;;6.33;2.33;;;;;19.17;52.96;102168.19;5062353;28;45497;-68
2022/06/12 00:52:36;;;;;;;;;4.00;2.00;;;;;19.11;53.24;102177.16;5063931;28;45305;-68
2022/06/12 00:55:09;;;;;;;;;4.33;3.67;;;;;19.11;54.03;102166.13;5061195;28;45306;-68
2022/06/12 00:57:35;;;;;;;;;2.33;2.00;;;;;19.11;53.89;102162.50;5064270;28;45446;-68
2022/06/12 01:00:09;;;;;;;;;2.00;2.00;;;;;19.07;54.73;102158.38;5062670;28;45389;-68
2022/06/12 01:02:35;;;;;;;;;2.67;2.67;;;;;19.07;53.78;102164.72;5081446;28;45557;-68
2022/06/12 01:08:09;;;;;;;;;3.00;1.67;;;;;18.90;54.21;102157.47;5021809;28;46036;-68
2022/06/12 01:10:39;;;;;;;;;2.67;2.00;;;;;18.87;54.28;102166.06;5021071;28;45348;-68
2022/06/12 01:13:11;;;;;;;;;2.33;1.00;;;;;18.71;55.34;102158.63;5041337;28;45490;-69
2022/06/12 01:15:41;;;;;;;;;4.00;2.00;;;;;18.80;55.21;102167.75;5060993;28;45242;-68
2022/06/12 01:18:11;;;;;;;;;6.00;3.00;;;;;18.82;54.75;102176.72;5063230;28;46627;-68
2022/06/12 01:20:57;;;;;;;;;6.00;4.33;;;;;18.80;54.39;102176.88;5060970;28;45397;-68
2022/06/12 01:23:42;;;;;;;;;3.33;2.33;;;;;18.78;54.74;102180.81;5050280;28;45582;-68
2022/06/12 01:26:43;;;;;;;;;6.00;2.00;;;;;18.69;55.23;102173.59;5065741;28;45428;-68
2022/06/12 01:29:46;;;;;;;;;4.00;2.00;;;;;18.66;54.90;102178.41;5055958;28;46922;-68
2022/06/12 01:32:21;;;;;;;;;4.67;3.33;;;;;18.62;54.46;102174.25;5063839;28;45368;-68
2022/06/12 01:34:57;;;;;;;;;4.67;3.00;;;;;18.55;55.67;102181.44;5058960;28;45386;-68
2022/06/12 01:37:44;;;;;;;;;5.00;3.00;;;;;18.47;55.62;102173.13;5065833;28;45413;-68
2022/06/12 01:40:25;;;;;;;;;2.67;2.33;;;;;18.40;55.71;102161.06;5061521;28;45736;-68
2022/06/12 01:43:17;;;;;;;;;4.00;2.00;;;;;18.45;56.07;102177.94;5064040;28;45440;-68
2022/06/12 01:45:53;;;;;;;;;4.00;2.00;;;;;18.39;55.83;102178.59;5063346;28;45289;-68
2022/06/12 01:48:41;;;;;;;;;4.00;4.00;;;;;18.18;57.37;102187.25;5078229;27;45345;-68
2022/06/12 01:51:26;;;;;;;;;4.00;2.00;;;;;18.14;57.57;102187.72;5078570;27;47198;-68
2022/06/12 01:54:12;;;;;;;;;5.67;3.33;;;;;18.15;57.54;102178.47;5062032;28;45523;-68
2022/06/12 01:56:56;;;;;;;;;3.00;3.00;;;;;18.16;57.14;102185.69;5064049;28;45312;-69
2022/06/12 01:59:50;;;;;;;;;4.33;2.00;;;;;18.10;57.54;102192.72;5057454;28;45325;-68
2022/06/12 02:02:28;;;;;;;;;8.00;3.00;;;;;18.10;57.21;102195.47;5060754;28;45586;-68
2022/06/12 02:04:59;;;;;;;;;4.00;3.00;;;;;18.11;57.50;102188.94;5062907;28;45468;-68
2022/06/12 02:07:32;;;;;;;;;3.00;3.00;;;;;18.05;58.08;102183.19;5064846;28;45577;-68
2022/06/12 02:10:10;;;;;;;;;8.00;1.67;;;;;17.91;57.77;102187.41;5061838;28;45438;-68
2022/06/12 02:15:41;;;;;;;;;5.00;2.00;;;;;17.72;59.14;102190.38;5061790;28;45434;-68
2022/06/12 02:18:18;;;;;;;;;2.00;2.00;;;;;17.60;59.83;102194.38;5060529;28;45349;-68
2022/06/12 02:20:49;;;;;;;;;6.33;3.00;;;;;17.59;59.94;102192.66;5061475;28;45349;-67
2022/06/12 02:23:31;;;;;;;;;4.00;4.00;;;;;17.74;59.80;102202.09;5062166;28;45501;-68
2022/06/12 02:25:58;;;;;;;;;3.00;3.00;;;;;17.78;58.69;102187.84;5056512;28;46396;-68
2022/06/12 02:28:47;;;;;;;;;5.33;2.33;;;;;17.68;60.02;102192.56;5058323;28;45330;-68
2022/06/12 02:31:19;;;;;;;;;3.00;3.00;;;;;17.71;59.41;102188.66;5062963;28;45322;-68
2022/06/12 02:33:49;;;;;;;;;5.00;2.00;;;;;17.74;59.71;102191.09;5058091;28;45401;-68
2022/06/12 02:36:21;;;;;;;;;1.00;1.00;;;;;17.70;59.39;102198.78;5064218;28;45456;-68
2022/06/12 02:38:59;;;;;;;;;3.00;3.00;;;;;17.66;59.90;102202.88;5058359;28;45302;-68
2022/06/12 02:41:39;;;;;;;;;3.33;3.33;;;;;17.59;59.90;102196.25;5063955;28;45371;-68
2022/06/12 02:44:13;;;;;;;;;5.00;3.67;;;;;17.61;60.02;102196.97;5062576;28;47370;-68
2022/06/12 02:46:42;;;;;;;;;3.33;3.00;;;;;17.64;59.63;102190.31;5063084;28;45331;-68
2022/06/12 02:49:09;;;;;;;;;3.33;3.33;;;;;17.65;59.63;102190.16;5059215;28;45393;-68
2022/06/12 02:51:49;;;;;;;;;6.33;3.00;;;;;17.69;60.73;102204.44;5064126;28;45635;-68
2022/06/12 02:54:48;;;;;;;;;4.00;3.00;;;;;17.59;60.16;102196.25;5061243;28;45383;-68
2022/06/12 02:57:47;;;;;;;;;3.00;2.00;;;;;17.47;60.39;102192.88;5062840;28;45361;-68
2022/06/12 03:00:35;;;;;;;;;2.33;2.33;;;;;17.48;60.26;102194.59;5055896;28;45258;-69
2022/06/12 03:03:25;;;;;;;;;2.67;2.67;;;;;17.45;60.57;102196.81;5061225;28;45303;-68
2022/06/12 03:05:54;;;;;;;;;4.00;4.00;;;;;17.44;60.33;102189.59;5061223;28;46123;-68
2022/06/12 03:08:25;;;;;;;;;5.33;3.00;;;;;17.39;61.16;102186.44;5062707;28;45750;-69
2022/06/12 03:11:09;;;;;;;;;5.33;3.00;;;;;17.45;61.46;102192.19;5061223;28;45227;-69
2022/06/12 03:13:35;;;;;;;;;4.67;4.67;;;;;17.43;61.21;102182.38;5062101;28;45615;-68
2022/06/12 03:16:13;;;;;;;;;2.33;2.33;;;;;17.42;61.10;102188.88;5058866;28;46196;-68
2022/06/12 03:18:41;;;;;;;;;2.00;2.00;;;;;17.36;61.26;102193.13;5061686;28;45476;-68
2022/06/12 03:21:14;;;;;;;;;1.33;1.33;;;;;17.41;61.00;102190.75;5063620;28;45444;-68
2022/06/12 03:24:12;;;;;;;;;3.67;3.67;;;;;17.39;61.49;102191.94;5061280;28;45471;-68
2022/06/12 03:27:12;;;;;;;;;6.33;5.00;;;;;17.36;62.39;102197.75;5055304;28;45633;-68
2022/06/12 03:29:54;;;;;;;;;5.00;5.00;;;;;17.27;63.09;102193.22;5057948;28;45309;-68
2022/06/12 03:32:30;;;;;;;;;6.00;4.00;;;;;17.29;63.28;102197.53;5060327;28;45406;-68
2022/06/12 03:35:16;;;;;;;;;3.00;3.00;;;;;17.28;63.24;102197.69;5059554;28;45333;-68
2022/06/12 03:38:00;;;;;;;;;4.00;3.00;;;;;17.27;63.80;102187.72;5061275;28;46850;-68
2022/06/12 03:41:02;;;;;;;;;6.00;6.00;;;;;17.19;63.04;102180.25;5062308;28;45318;-68
2022/06/12 03:43:31;;;;;;;;;3.00;3.00;;;;;17.22;63.90;102195.56;5059307;28;45325;-68
2022/06/12 03:46:21;;;;;;;;;7.33;6.00;;;;;17.24;64.19;102194.38;5061428;28;45222;-68
2022/06/12 03:49:02;;;;;;;;;8.00;4.00;;;;;17.23;64.20;102192.66;5057646;28;45504;-68
2022/06/12 03:51:48;;;;;;;;;3.67;3.67;;;;;17.26;63.82;102196.97;5061832;28;45450;-68
2022/06/12 03:54:33;;;;;;;;;5.33;3.67;;;;;17.27;63.71;102195.94;5058081;28;45440;-68
2022/06/12 03:59:56;;;;;;;;;5.00;5.00;;;;;17.03;64.57;102191.94;5053117;28;45535;-68
2022/06/12 04:02:26;;;;;;;;;5.00;4.00;;;;;16.96;65.31;102190.81;5060529;28;45500;-68
2022/06/12 04:04:53;;;;;;;;;6.67;5.33;;;;;16.98;65.35;102182.44;5054250;28;45271;-68
2022/06/12 04:07:21;;;;;;;;;5.33;5.33;;;;;17.06;65.75;102180.66;5063590;28;45314;-68
2022/06/12 04:09:49;;;;;;;;;5.00;5.00;;;;;17.01;65.87;102177.53;5059552;28;46233;-68
2022/06/12 04:12:28;;;;;;;;;8.00;5.00;;;;;17.03;65.99;102185.56;5061204;28;45342;-68
2022/06/12 04:15:17;;;;;;;;;4.67;4.67;;;;;17.02;65.46;102170.97;5058497;28;45389;-68
2022/06/12 04:17:43;;;;;;;;;5.00;5.00;;;;;17.07;65.71;102171.41;5058206;28;45368;-68
2022/06/12 04:20:37;;;;;;;;;5.67;5.00;;;;;17.17;65.03;102179.53;5058697;28;46364;-68
2022/06/12 04:23:16;;;;;;;;;2.33;2.33;;;;;17.20;65.24;102186.63;5058637;28;45906;-68
2022/06/12 04:25:59;;;;;;;;;3.33;2.33;;;;;17.23;64.75;102173.44;5058982;28;45293;-68
2022/06/12 04:28:30;;;;;;;;;7.33;4.00;;;;;17.28;65.24;102189.44;5059767;28;45333;-68
2022/06/12 04:30:57;;;;;;;;;9.33;4.33;;;;;17.23;65.07;102180.81;5060833;28;45424;-69
2022/06/12 04:33:46;;;;;;;;;9.67;6.00;;;;;17.24;64.81;102191.63;5059584;28;45389;-68
2022/06/12 04:36:12;;;;;;;;;10.00;4.33;;;;;17.27;65.98;102193.22;5061199;28;45289;-68
2022/06/12 04:38:38;;;;;;;;;6.33;5.67;;;;;17.13;66.05;102190.00;5057901;28;45503;-69
2022/06/12 04:41:04;;;;;;;;;5.00;4.67;;;;;17.12;66.67;102188.25;5076746;27;47270;-68
2022/06/12 04:43:31;;;;;;;;;5.67;5.67;;;;;17.20;65.71;102186.63;5058003;28;45455;-69
2022/06/12 04:45:56;;;;;;;;;4.33;4.00;;;;;17.31;65.00;102191.88;5060785;28;45317;-68
2022/06/12 04:48:45;;;;;;;;;5.00;3.33;;;;;17.39;64.63;102191.94;5057716;28;45746;-68
2022/06/12 04:51:12;;;;;;;;;5.00;3.67;;;;;17.46;64.51;102187.53;5058219;28;45503;-69
2022/06/12 04:53:39;;;;;;;;;3.67;3.00;;;;;17.52;64.42;102192.41;5059158;28;45351;-69
2022/06/12 04:56:05;;;;;;;;;5.00;5.00;;;;;17.60;64.43;102186.13;5060650;28;45346;-69
2022/06/12 04:58:30;;;;;;;;;3.00;3.00;;;;;17.60;64.30;102194.38;5060471;28;45459;-69
2022/06/12 05:00:57;;;;;;;;;5.33;4.00;;;;;17.58;64.40;102191.78;5055927;28;46300;-68
2022/06/12 05:03:22;;;;;;;;;4.00;4.00;;;;;17.71;63.62;102188.66;5059649;28;45324;-68
2022/06/12 05:05:48;;;;;;;;;9.67;4.00;;;;;17.71;63.98;102185.91;5059199;28;45341;-68
2022/06/12 05:08:14;;;;;;;;;5.33;5.00;;;;;17.81;63.20;102182.03;5061781;28;45247;-68
2022/06/12 05:10:40;;;;;;;;;6.67;6.33;;;;;18.20;62.59;102174.19;5061072;28;46480;-68
2022/06/12 05:13:06;;;;;;;;;4.33;2.33;;;;;18.85;60.20;102179.16;5060067;28;45273;-69
2022/06/12 05:15:33;;;;;;;;;5.33;4.67;;;;;18.56;60.86;102177.66;5060664;28;45576;-69
2022/06/12 05:17:58;;;;;;;;;6.00;5.00;;;;;18.22;61.99;102174.03;5064462;28;45416;-69
2022/06/12 05:20:28;;;;;;;;;9.33;6.00;;;;;18.28;61.28;102170.63;5062002;28;47578;-69
2022/06/12 05:22:54;;;;;;;;;7.67;5.33;;;;;18.42;61.69;102164.50;5064571;28;45516;-69
2022/06/12 05:25:19;;;;;;;;;3.67;3.00;;;;;18.50;61.36;102171.91;5076667;28;45383;-69
2022/06/12 05:27:46;;;;;;;;;6.33;3.00;;;;;18.61;60.91;102174.44;5065668;28;45529;-68
2022/06/12 05:30:15;;;;;;;;;4.67;2.67;;;;;18.61;59.98;102167.03;5060976;28;47160;-68
2022/06/12 05:32:41;;;;;;;;;6.33;4.00;;;;;18.38;59.98;102167.75;5065516;28;45393;-68
2022/06/12 05:35:09;;;;;;;;;2.00;2.00;;;;;19.03;59.06;102175.22;5060719;28;45404;-69
2022/06/12 05:37:35;;;;;;;;;4.33;3.00;;;;;19.75;56.91;102175.47;5065814;28;45315;-69
2022/06/12 05:40:01;;;;;;;;;5.00;4.00;;;;;20.89;53.48;102171.31;5057974;28;46436;-68
2022/06/12 05:42:27;;;;;;;;;3.67;3.67;;;;;22.00;51.00;102170.81;5062175;28;45294;-69
2022/06/12 05:44:52;;;;;;;;;5.67;2.33;;;;;21.75;49.80;102165.53;5060618;28;45424;-68
2022/06/12 05:47:18;;;;;;;;;7.00;4.67;;;;;21.12;50.16;102162.19;5063007;28;45234;-68
2022/06/12 05:49:43;;;;;;;;;4.67;3.67;;;;;20.49;51.65;102166.00;5058107;28;45867;-69
2022/06/12 05:52:08;;;;;;;;;5.33;3.33;;;;;19.97;53.70;102163.72;5064873;28;47939;-68
2022/06/12 05:54:34;;;;;;;;;3.67;3.67;;;;;19.82;53.71;102176.50;5062971;28;45210;-68
2022/06/12 05:56:59;;;;;;;;;6.67;4.00;;;;;19.49;55.32;102183.94;5065612;28;45234;-68
2022/06/12 05:59:25;;;;;;;;;5.67;3.33;;;;;19.64;55.07;102184.97;5059330;28;46392;-69
2022/06/12 06:01:50;;;;;;;;;3.00;3.00;;;;;19.62;55.03;102181.53;5064814;28;45406;-69
2022/06/12 06:04:16;;;;;;;;;2.67;2.33;;;;;19.61;54.86;102187.19;5059248;28;45457;-69
2022/06/12 06:06:48;;;;;;;;;3.00;2.00;;;;;20.14;53.27;102187.47;5064911;28;45404;-69
2022/06/12 06:09:14;;;;;;;;;4.67;2.67;;;;;21.40;51.00;102195.75;5061707;28;46689;-68
2022/06/12 06:11:41;;;;;;;;;4.33;2.00;;;;;21.24;49.46;102199.47;5063886;28;45356;-69
2022/06/12 06:14:06;;;;;;;;;4.00;3.00;;;;;20.72;50.14;102196.47;5062892;28;46077;-69
2022/06/12 06:16:33;;;;;;;;;2.00;2.00;;;;;20.68;51.36;102187.66;5065265;28;45424;-68
2022/06/12 06:18:59;;;;;;;;;5.67;2.67;;;;;20.31;51.20;102204.00;5060149;28;45708;-68
2022/06/12 06:21:24;;;;;;;;;5.00;3.33;;;;;20.27;52.35;102191.59;5062757;28;45369;-69
2022/06/12 06:23:49;;;;;;;;;4.00;2.00;;;;;20.44;51.78;102188.63;5058965;28;45298;-68
2022/06/12 06:26:16;;;;;;;;;4.67;3.67;;;;;20.52;51.31;102190.50;5064524;28;45326;-68
2022/06/12 06:28:42;;;;;;;;;2.67;1.67;;;;;20.41;51.36;102193.63;5062177;28;45537;-69
2022/06/12 06:31:09;;;;;;;;;7.00;3.00;;;;;20.04;52.08;102200.59;5063093;28;45440;-68
2022/06/12 06:33:35;;;;;;;;;2.00;2.00;;;;;19.98;52.56;102197.69;5062752;28;45426;-68
2022/06/12 06:36:00;;;;;;;;;5.00;3.00;;;;;20.21;50.72;102193.16;5064358;28;45361;-68
2022/06/12 06:38:26;;;;;;;;;4.00;4.00;;;;;20.45;50.40;102200.53;5061597;28;46444;-68
2022/06/12 06:40:51;;;;;;;;;3.00;3.00;;;;;20.30;50.61;102170.03;5062540;28;45543;-68
2022/06/12 06:43:16;;;;;;;;;4.33;4.33;;;;;20.20;50.89;102213.50;5062400;28;45940;-68
2022/06/12 06:48:27;;;;;;;;;8.33;3.67;;;;;20.30;50.96;102208.66;5061302;28;45438;-68
2022/06/12 06:50:54;;;;;;;;;2.00;2.00;;;;;19.99;51.60;102216.81;5060732;28;45267;-68
2022/06/12 06:53:20;;;;;;;;;6.67;3.33;;;;;20.06;51.81;102208.72;5062267;28;47440;-69
2022/06/12 06:55:47;;;;;;;;;3.00;3.00;;;;;20.37;51.00;102200.56;5064369;28;45223;-68
2022/06/12 06:58:16;;;;;;;;;7.00;4.00;;;;;20.61;50.74;102200.47;5062070;28;45692;-68
2022/06/12 07:00:43;;;;;;;;;3.00;3.00;;;;;20.45;50.92;102212.44;5063586;28;45425;-69
2022/06/12 07:03:09;;;;;;;;;6.33;4.00;;;;;20.48;50.29;102205.69;5062521;28;45312;-69
2022/06/12 07:05:35;;;;;;;;;3.00;2.00;;;;;20.79;50.37;102219.56;5059600;28;45521;-69
2022/06/12 07:08:01;;;;;;;;;3.67;2.00;;;;;20.54;49.45;102205.84;5062976;28;45616;-69
2022/06/12 07:10:28;;;;;;;;;1.67;1.67;;;;;20.70;49.61;102209.56;5061386;28;45497;-68
2022/06/12 07:12:56;;;;;;;;;2.67;2.67;;;;;20.68;49.94;102206.97;5078422;28;45391;-68
2022/06/12 07:15:23;;;;;;;;;2.67;2.67;;;;;20.81;48.79;102210.06;5058981;28;45381;-68
2022/06/12 07:17:48;;;;;;;;;3.00;2.67;;;;;20.88;48.66;102211.06;5062927;28;46080;-68
2022/06/12 07:20:18;;;;;;;;;4.33;4.00;;;;;20.74;49.27;102220.09;5057230;28;45436;-67
2022/06/12 07:22:44;;;;;;;;;3.00;1.67;;;;;20.79;50.29;102217.66;5063610;28;45535;-68
2022/06/12 07:25:11;;;;;;;;;3.00;3.00;;;;;20.72;50.41;102213.88;5061792;28;45318;-67
2022/06/12 07:27:38;;;;;;;;;4.33;4.00;;;;;20.83;50.29;102209.84;5063274;28;46745;-67
2022/06/12 07:30:05;;;;;;;;;4.33;3.00;;;;;20.67;49.31;102210.81;5059965;28;45456;-68
2022/06/12 07:32:31;;;;;;;;;4.00;4.00;;;;;20.77;49.45;102208.69;5063414;28;45408;-68
2022/06/12 07:34:56;;;;;;;;;5.00;5.00;;;;;20.68;49.00;102197.84;5060341;28;45361;-68
2022/06/12 07:37:22;;;;;;;;;4.67;3.00;;;;;20.70;49.01;102199.38;5060495;28;47945;-68
2022/06/12 07:39:47;;;;;;;;;3.00;3.00;;;;;20.71;50.55;102209.41;5059656;28;45357;-68
2022/06/12 07:42:13;;;;;;;;;4.33;4.00;;;;;20.92;50.36;102201.34;5063192;28;45464;-68
2022/06/12 07:44:38;;;;;;;;;5.00;3.00;;;;;21.08;50.07;102216.13;5059993;28;45202;-68
2022/06/12 07:47:04;;;;;;;;;3.33;3.33;;;;;21.08;47.70;102213.34;5063147;28;45353;-68
2022/06/12 07:49:32;;;;;;;;;5.33;4.00;;;;;20.96;48.37;102215.69;5060953;28;45700;-68
2022/06/12 07:52:01;;;;;;;;;2.33;2.33;;;;;20.65;48.73;102218.41;5062918;28;45298;-68
2022/06/12 07:54:27;;;;;;;;;3.33;1.67;;;;;20.96;48.36;102211.00;5059730;28;45548;-68
2022/06/12 07:56:53;;;;;;;;;3.00;2.00;;;;;21.37;47.24;102213.53;5062869;28;45357;-68
2022/06/12 07:59:19;;;;;;;;;3.00;1.00;;;;;21.39;47.13;102216.13;5053243;28;45346;-67
2022/06/12 08:01:44;;;;;;;;;5.67;2.00;;;;;21.29;47.58;102210.84;5062766;28;45434;-68
2022/06/12 08:04:11;;;;;;;;;3.00;3.00;;;;;21.62;47.39;102217.00;5057315;28;45416;-68
2022/06/12 08:06:37;;;;;;;;;2.67;2.67;;;;;21.81;45.89;102218.38;5062581;28;45350;-68
2022/06/12 08:09:05;;;;;;;;;3.00;2.00;;;;;21.91;46.58;102219.84;5059457;28;45460;-68
2022/06/12 08:11:32;;;;;;;;;4.00;2.00;;;;;21.99;42.75;102213.41;5062973;28;45316;-68
2022/06/12 08:13:58;;;;;;;;;2.33;2.33;;;;;21.91;43.60;102219.00;5055478;28;45254;-68
2022/06/12 08:16:24;;;;;;;;;2.00;2.00;;;;;21.93;44.88;102214.09;5062332;28;46246;-67
2022/06/12 08:18:49;;;;;;;;;2.00;2.00;;;;;22.34;44.81;102218.22;5057534;28;45408;-68
2022/06/12 08:21:16;;;;;;;;;3.00;2.00;;;;;22.49;45.03;102198.84;5062526;28;45463;-67
2022/06/12 08:23:50;;;;;;;;;2.00;2.00;;;;;22.86;43.06;102206.19;5057723;28;45488;-67
2022/06/12 08:26:26;;;;;;;;;4.67;3.33;;;;;22.50;42.86;102195.84;5060773;28;46118;-67
2022/06/12 08:28:55;;;;;;;;;4.33;2.00;;;;;22.54;43.23;102193.56;5052882;28;45519;-68
2022/06/12 08:31:25;;;;;;;;;2.67;2.00;;;;;22.64;42.53;102190.53;5055264;28;45324;-68
2022/06/12 08:33:55;;;;;;;;;4.00;2.67;;;;;22.55;41.62;102195.31;5060772;28;45534;-67
2022/06/12 08:36:21;;;;;;;;;4.00;2.00;;;;;22.24;41.95;102197.38;5061585;28;45771;-68
2022/06/12 08:38:48;;;;;;;;;1.33;1.33;;;;;22.15;43.30;102196.63;5058571;28;45354;-68
2022/06/12 08:41:31;;;;;;;;;2.00;0.00;;;;;22.00;42.94;102192.97;5061003;28;45245;-68
2022/06/12 08:44:15;;;;;;;;;3.67;2.00;;;;;22.27;43.24;102195.13;5059252;28;45405;-67
2022/06/12 08:46:49;;;;;;;;;5.00;3.67;;;;;22.76;42.27;102181.53;5059897;28;46042;-67
2022/06/12 08:49:24;;;;;;;;;2.00;2.00;;;;;22.79;41.44;102186.69;5061250;28;45456;-68
2022/06/12 08:51:59;;;;;;;;;2.00;2.00;;;;;22.92;39.90;102174.06;5065147;28;45450;-68
2022/06/12 08:54:56;;;;;;;;;2.00;2.00;;;;;22.65;41.91;102175.59;5063413;28;45506;-68
2022/06/12 08:57:28;;;;;;;;;4.00;4.00;;;;;23.04;43.02;102176.13;5063318;28;46498;-67
2022/06/12 09:00:19;;;;;;;;;4.00;1.00;;;;;23.20;41.37;102175.88;5063275;28;45480;-68
2022/06/12 09:02:45;;;;;;;;;1.00;1.00;;;;;23.56;41.76;102172.22;5063407;28;45196;-67
2022/06/12 09:05:20;;;;;;;;;2.00;2.00;;;;;23.46;40.37;102169.72;5059647;28;45671;-68
2022/06/12 09:08:00;;;;;;;;;2.33;2.33;;;;;23.49;40.96;102157.44;5065357;28;46306;-67
2022/06/12 09:10:38;;;;;;;;;2.67;1.67;;;;;23.52;41.43;102170.91;5064130;28;45272;-70
2022/06/12 09:13:20;;;;;;;;;3.00;3.00;;;;;23.60;40.87;102165.19;5062105;28;45381;-68
2022/06/12 09:18:38;;;;;;;;;4.00;3.00;;;;;24.17;39.95;102155.84;5061698;28;75190;-68
2022/06/12 09:21:09;;;;;;;;;1.67;1.67;;;;;24.31;38.12;102163.22;5065103;28;45404;-68
2022/06/12 09:23:40;;;;;;;;;3.33;3.00;;;;;23.99;38.35;102154.41;5065677;28;45278;-68
2022/06/12 09:26:17;;;;;;;;;2.33;1.00;;;;;24.37;38.94;102151.28;5065659;28;45424;-67
2022/06/12 09:28:57;;;;;;;;;3.00;3.00;;;;;24.05;38.66;102158.31;5064066;28;47834;-67
2022/06/12 09:31:29;;;;;;;;;2.67;2.00;;;;;24.04;39.33;102163.00;5065180;28;45400;-68
2022/06/12 09:34:00;;;;;;;;;4.00;2.33;;;;;24.39;39.75;102157.50;5065771;28;45422;-66
2022/06/12 09:36:43;;;;;;;;;2.67;1.67;;;;;24.61;39.73;102159.09;5065999;28;45257;-69
2022/06/12 09:39:51;;;;;;;;;2.33;2.33;;;;;24.93;39.66;102146.41;5065328;28;46481;-68
2022/06/12 09:42:22;;;;;;;;;4.00;2.33;;;;;24.60;38.29;102149.06;5062612;28;45226;-67
2022/06/12 09:44:56;;;;;;;;;2.00;2.00;;;;;24.69;37.57;102161.69;5065333;28;45359;-67
2022/06/12 09:47:44;;;;;;;;;3.00;1.33;;;;;24.99;37.91;102161.41;5065459;28;45247;-67
2022/06/12 09:50:16;;;;;;;;;2.67;2.67;;;;;25.49;36.36;102166.44;5065116;28;45261;-68
2022/06/12 09:53:03;;;;;;;;;2.33;1.00;;;;;25.72;36.99;102156.81;5064840;28;45266;-67
2022/06/12 09:55:37;;;;;;;;;4.00;3.00;;;;;26.08;36.43;102160.00;5065308;28;45343;-67
2022/06/12 09:58:32;;;;;;;;;3.00;3.00;;;;;26.22;36.47;102164.50;5065336;28;45349;-69
2022/06/12 10:01:16;;;;;;;;;1.67;0.33;;;;;26.26;35.94;102163.03;5063345;28;45432;-68
2022/06/12 10:03:52;;;;;;;;;4.00;3.33;;;;;26.26;34.74;102160.25;5064790;28;45443;-69
2022/06/12 10:06:30;;;;;;;;;1.67;1.67;;;;;26.45;34.27;102165.97;5064846;28;45335;-68
2022/06/12 10:09:02;;;;;;;;;1.00;1.00;;;;;26.19;34.49;102169.66;5068583;28;45238;-67
2022/06/12 10:11:33;;;;;;;;;2.00;2.00;;;;;25.75;36.25;102167.56;5070784;27;45251;-67
2022/06/12 10:14:14;;;;;;;;;4.33;3.00;;;;;26.45;34.91;102157.59;5079823;28;45282;-68
2022/06/12 10:16:48;;;;;;;;;2.00;2.00;;;;;27.03;34.32;102162.09;5064831;28;45354;-67
2022/06/12 10:19:24;;;;;;;;;3.33;3.33;;;;;27.38;33.57;102153.31;5063727;28;45271;-68
2022/06/12 10:21:53;;;;;;;;;3.00;3.00;;;;;27.26;33.99;102149.50;5064482;28;46494;-68
2022/06/12 10:24:20;;;;;;;;;3.67;1.67;;;;;27.56;33.78;102150.59;5064771;28;45415;-68
2022/06/12 10:27:01;;;;;;;;;3.00;3.00;;;;;26.98;34.89;102153.53;5086372;27;45461;-68
2022/06/12 10:29:39;;;;;;;;;2.00;2.00;;;;;27.11;35.22;102147.88;5065395;28;45465;-68
2022/06/12 10:32:05;;;;;;;;;2.67;1.67;;;;;27.59;33.07;102144.59;5079837;27;47192;-68
2022/06/12 10:34:32;;;;;;;;;1.00;1.00;;;;;27.67;31.41;102141.50;5080244;28;45429;-68
2022/06/12 10:37:18;;;;;;;;;1.00;1.00;;;;;27.79;33.29;102145.25;5071508;28;45310;-68
2022/06/12 10:39:43;;;;;;;;;2.00;2.00;;;;;26.98;34.31;102131.22;5071422;27;45311;-68
2022/06/12 10:42:40;;;;;;;;;4.00;2.00;;;;;26.70;36.66;102128.78;5064153;28;45432;-68
2022/06/12 10:45:20;;;;;;;;;3.33;2.00;;;;;27.59;34.69;102125.03;5064550;28;45313;-68
2022/06/12 10:47:47;;;;;;;;;3.33;3.33;;;;;27.52;33.70;102121.41;5063193;28;45400;-68
2022/06/12 10:50:16;;;;;;;;;4.67;4.00;;;;;27.85;34.66;102115.56;5064934;28;45302;-68
2022/06/12 10:52:56;;;;;;;;;3.00;1.33;;;;;27.85;34.43;102119.19;5064161;28;45337;-68
2022/06/12 10:55:41;;;;;;;;;6.67;4.00;;;;;28.24;33.80;102108.72;5063959;28;45404;-68
2022/06/12 10:58:17;;;;;;;;;6.00;5.33;;;;;28.31;33.30;102115.09;5064132;28;45374;-69
2022/06/12 11:00:47;;;;;;;;;4.00;4.00;;;;;28.48;33.70;102110.59;5064543;28;45317;-69
2022/06/12 11:03:26;;;;;;;;;2.00;2.00;;;;;28.26;32.78;102117.75;5063999;28;45475;-69
2022/06/12 11:06:18;;;;;;;;;6.00;6.00;;;;;28.14;33.44;102113.97;5064161;28;45275;-69
2022/06/12 11:09:05;;;;;;;;;1.33;1.00;;;;;28.71;31.55;102104.28;5064136;28;45314;-69
2022/06/12 11:11:47;;;;;;;;;4.00;4.00;;;;;28.16;31.17;102095.06;5063898;28;45356;-69
2022/06/12 11:14:20;;;;;;;;;3.33;2.67;;;;;28.71;32.06;102097.84;5063939;28;45340;-69
2022/06/12 11:17:10;;;;;;;;;6.67;4.00;;;;;28.92;31.47;102100.16;5063436;28;45279;-69
2022/06/12 11:20:04;;;;;;;;;5.00;4.67;;;;;28.98;31.51;102079.59;5062312;28;45297;-69
2022/06/12 11:22:29;;;;;;;;;2.33;2.33;;;;;28.70;32.08;102087.72;5064009;28;45491;-69
2022/06/12 11:25:04;;;;;;;;;3.67;3.67;;;;;29.15;29.63;102085.38;5062023;28;48124;-69
2022/06/12 11:27:41;;;;;;;;;3.67;3.00;;;;;29.27;29.06;102084.31;5063486;28;45389;-69
2022/06/12 11:30:31;;;;;;;;;5.67;2.67;;;;;29.12;29.66;102086.69;5062591;28;45446;-69
2022/06/12 11:33:21;;;;;;;;;4.00;4.00;;;;;29.24;28.82;102076.38;5064320;28;45101;-69
2022/06/12 11:36:17;;;;;;;;;5.67;4.00;;;;;29.30;29.41;102075.41;5062326;28;45571;-69
2022/06/12 11:38:51;;;;;;;;;5.00;3.33;;;;;29.91;27.56;102070.47;5063710;28;45348;-70
2022/06/12 11:41:28;;;;;;;;;3.00;3.00;;;;;29.50;28.90;102075.13;5062472;28;45320;-69
2022/06/12 11:44:30;;;;;;;;;3.00;3.00;;;;;29.58;29.37;102059.91;5062498;28;45361;-69
2022/06/12 11:47:17;;;;;;;;;3.00;3.00;;;;;29.18;29.51;102056.88;5063543;28;45314;-69
2022/06/12 11:49:51;;;;;;;;;1.00;1.00;;;;;29.89;28.36;102048.31;5063724;28;45270;-69
2022/06/12 11:52:36;;;;;;;;;2.67;2.67;;;;;29.58;26.68;102043.09;5062072;28;45432;-68
2022/06/12 11:55:31;;;;;;;;;6.00;4.00;;;;;29.44;25.92;102048.09;5063497;28;45396;-68
2022/06/12 11:58:18;;;;;;;;;3.00;2.00;;;;;29.11;25.94;102051.41;5063255;28;46283;-68
2022/06/12 12:01:10;;;;;;;;;3.00;3.00;;;;;29.42;27.42;102042.72;5062036;28;45380;-67
2022/06/12 12:04:03;;;;;;;;;3.00;3.00;;;;;30.00;24.30;102044.69;5062996;28;45504;-68
2022/06/12 12:07:06;;;;;;;;;4.00;4.00;;;;;29.93;25.32;102040.31;5062310;28;45265;-69
2022/06/12 12:10:06;;;;;;;;;2.67;2.67;;;;;30.03;26.59;102032.09;5061527;28;46782;-69